Time;durP1;ratioP1;P1;durP2;ratioP2;P2;SDS_P1;SDS_P2;PMS_P1;PMS_P2;Temp;Humidity;BMP_temperature;BMP_pressure;BME280_temperature;BME280_humidity;BME280_pressure;Samples;Min_cycle;Max_cycle;Signal;HPM_P1;HPM_P2
2023/02/03 00:02:17;;;;;;;8.40;1.58;;;;;;;16.51;47.57;102379.34;4935419;29;20024;-66
2023/02/03 00:04:42;;;;;;;4.20;1.58;;;;;;;16.50;47.47;102364.13;4934440;29;20034;-66
2023/02/03 00:07:13;;;;;;;3.42;1.55;;;;;;;16.49;47.40;102357.84;4934348;29;20031;-66
2023/02/03 00:09:39;;;;;;;6.63;1.40;;;;;;;16.46;48.41;102360.81;4934464;29;20030;-66
2023/02/03 00:12:06;;;;;;;3.25;1.80;;;;;;;16.48;48.31;102358.81;4934427;29;20028;-66
2023/02/03 00:14:32;;;;;;;2.25;1.30;;;;;;;16.45;47.24;102353.66;4935806;29;20047;-66
2023/02/03 00:16:58;;;;;;;2.60;1.30;;;;;;;16.46;47.35;102349.13;4919834;29;20035;-66
2023/02/03 00:19:23;;;;;;;8.68;1.88;;;;;;;16.47;48.91;102348.97;4935680;29;20506;-66
2023/02/03 00:21:48;;;;;;;5.22;1.65;;;;;;;16.49;47.25;102357.84;4935798;29;20036;-66
2023/02/03 00:24:14;;;;;;;5.03;1.38;;;;;;;16.49;47.65;102349.72;4939276;29;20035;-66
2023/02/03 00:26:41;;;;;;;3.67;1.70;;;;;;;16.48;47.52;102348.00;4935581;29;20054;-66
2023/02/03 00:29:08;;;;;;;2.45;1.30;;;;;;;16.49;47.87;102344.31;4935070;29;20032;-65
2023/02/03 00:31:34;;;;;;;4.55;1.25;;;;;;;16.51;48.30;102346.88;4934363;29;20035;-66
2023/02/03 00:34:00;;;;;;;2.88;1.05;;;;;;;16.52;48.11;102348.59;4935572;29;20031;-66
2023/02/03 00:36:26;;;;;;;4.30;1.20;;;;;;;16.51;48.47;102347.75;4936399;29;20476;-66
2023/02/03 00:38:52;;;;;;;5.10;1.13;;;;;;;16.54;48.32;102344.81;4944384;29;20023;-66
2023/02/03 00:41:17;;;;;;;3.20;1.25;;;;;;;16.55;48.21;102348.38;4954222;28;20090;-69
2023/02/03 00:43:43;;;;;;;6.70;1.40;;;;;;;16.55;48.13;102351.97;4954366;28;20047;-67
2023/02/03 00:46:10;;;;;;;4.22;1.40;;;;;;;16.53;47.97;102340.38;4953235;29;20027;-66
2023/02/03 00:48:35;;;;;;;6.28;2.05;;;;;;;16.49;47.77;102341.63;4954557;28;20075;-66
2023/02/03 00:51:01;;;;;;;4.38;1.63;;;;;;;16.48;47.43;102337.19;4953167;28;20035;-67
2023/02/03 00:53:26;;;;;;;3.35;1.27;;;;;;;16.47;47.74;102338.16;4954468;28;20031;-66
2023/02/03 00:55:51;;;;;;;8.52;1.95;;;;;;;16.46;48.48;102349.13;4954240;28;20093;-67
2023/02/03 00:58:17;;;;;;;2.13;1.25;;;;;;;16.38;47.70;102344.38;4954397;28;20111;-67
2023/02/03 01:00:42;;;;;;;5.35;0.95;;;;;;;16.43;48.55;102349.38;4940431;29;20475;-66
2023/02/03 01:03:09;;;;;;;2.22;1.08;;;;;;;16.43;48.85;102343.97;4958277;28;20064;-66
2023/02/03 01:05:35;;;;;;;6.13;1.15;;;;;;;16.37;48.18;102339.94;4957015;29;20042;-66
2023/02/03 01:08:00;;;;;;;5.18;1.27;;;;;;;16.36;48.43;102349.03;4958111;28;20028;-67
2023/02/03 01:10:26;;;;;;;3.08;1.35;;;;;;;16.41;47.65;102363.06;4957000;29;20023;-66
2023/02/03 01:12:52;;;;;;;5.15;1.10;;;;;;;16.43;47.64;102361.06;4957996;28;20126;-66
2023/02/03 01:15:17;;;;;;;3.53;0.98;;;;;;;16.43;47.76;102366.47;4957873;28;20102;-66
2023/02/03 01:17:43;;;;;;;3.70;1.50;;;;;;;16.42;48.63;102369.28;4956682;29;20491;-66
2023/02/03 01:20:11;;;;;;;4.20;1.33;;;;;;;16.40;49.10;102377.56;4957987;28;20431;-66
2023/02/03 01:22:36;;;;;;;5.45;1.77;;;;;;;16.40;48.76;102380.25;4958061;28;20038;-66
2023/02/03 01:25:02;;;;;;;4.63;1.10;;;;;;;16.39;47.38;102381.22;4956590;28;20023;-67
2023/02/03 01:27:28;;;;;;;4.78;1.23;;;;;;;16.41;48.36;102379.28;4957801;28;20032;-66
2023/02/03 01:29:53;;;;;;;3.03;1.98;;;;;;;16.31;47.97;102362.09;4956473;29;20062;-66
2023/02/03 01:32:18;;;;;;;4.65;1.27;;;;;;;16.42;48.30;102380.09;4957609;28;20035;-66
2023/02/03 01:34:44;;;;;;;3.80;1.30;;;;;;;16.43;49.01;102376.44;4957699;28;20066;-67
2023/02/03 01:37:10;;;;;;;5.15;1.70;;;;;;;16.45;47.96;102396.09;4957569;28;20066;-66
2023/02/03 01:39:35;;;;;;;3.50;1.23;;;;;;;16.46;47.87;102392.41;4957406;28;20086;-66
2023/02/03 01:42:01;;;;;;;5.20;1.17;;;;;;;16.44;48.52;102400.66;4957585;28;20039;-66
2023/02/03 01:44:46;;;;;;;2.63;1.00;;;;;;;16.47;48.54;102411.19;4940815;29;20057;-67
2023/02/03 01:47:24;;;;;;;5.15;1.80;;;;;;;16.47;47.91;102413.91;4959603;28;20039;-68
2023/02/03 01:50:10;;;;;;;2.05;1.05;;;;;;;16.47;48.57;102400.38;4958965;28;20034;-66
2023/02/03 01:52:37;;;;;;;2.65;0.98;;;;;;;16.47;48.62;102389.56;4957700;28;20035;-66
2023/02/03 01:55:04;;;;;;;2.72;1.17;;;;;;;16.48;48.20;102391.28;4957581;28;20031;-66
2023/02/03 01:57:37;;;;;;;5.15;2.28;;;;;;;16.54;47.56;102392.66;4940294;29;20027;-67
2023/02/03 02:00:05;;;;;;;9.45;1.58;;;;;;;16.50;47.97;102378.47;4956116;29;20032;-67
2023/02/03 02:02:31;;;;;;;3.88;0.90;;;;;;;16.53;47.65;102383.66;4956046;29;20035;-66
2023/02/03 02:05:19;;;;;;;2.03;0.70;;;;;;;16.51;47.89;102380.22;4958410;28;20027;-67
2023/02/03 02:07:46;;;;;;;8.18;1.35;;;;;;;16.49;47.73;102371.38;4955581;28;20035;-67
2023/02/03 02:10:12;;;;;;;3.90;1.10;;;;;;;16.49;48.09;102371.38;4939927;28;20158;-66
2023/02/03 02:12:37;;;;;;;3.28;1.08;;;;;;;16.50;48.91;102373.06;4934281;29;20158;-66
2023/02/03 02:15:04;;;;;;;5.70;1.38;;;;;;;16.48;48.92;102374.19;4936822;29;20027;-67
2023/02/03 02:17:53;;;;;;;2.35;1.20;;;;;;;16.46;47.83;102379.75;4938461;29;20024;-66
2023/02/03 02:20:51;;;;;;;8.60;1.38;;;;;;;16.43;47.47;102388.13;4937200;29;20089;-67
2023/02/03 02:23:29;;;;;;;4.60;1.15;;;;;;;16.44;47.54;102381.72;4938599;29;20071;-67
2023/02/03 02:26:19;;;;;;;6.47;1.40;;;;;;;16.48;48.69;102383.16;4936502;29;20506;-66
2023/02/03 02:29:03;;;;;;;4.18;1.50;;;;;;;16.49;48.48;102382.19;4937488;29;20439;-66
2023/02/03 02:31:47;;;;;;;3.15;1.23;;;;;;;16.47;47.84;102389.56;4937074;29;20412;-66
2023/02/03 02:34:32;;;;;;;2.80;1.15;;;;;;;16.46;47.62;102366.22;4937393;29;20028;-66
2023/02/03 02:37:03;;;;;;;5.35;1.33;;;;;;;16.43;48.13;102350.25;4920142;29;20027;-67
2023/02/03 02:39:39;;;;;;;6.20;0.95;;;;;;;16.46;47.96;102358.09;4935936;29;20042;-66
2023/02/03 02:42:18;;;;;;;4.68;1.95;;;;;;;16.47;48.46;102350.84;4935953;29;20079;-66
2023/02/03 02:44:49;;;;;;;5.15;1.45;;;;;;;16.48;48.22;102353.41;4935890;29;20035;-67
2023/02/03 02:47:19;;;;;;;5.65;1.35;;;;;;;16.50;48.34;102356.84;4935970;29;20031;-66
2023/02/03 02:50:08;;;;;;;5.15;2.03;;;;;;;16.47;47.73;102340.88;4935631;29;20396;-68
2023/02/03 02:52:36;;;;;;;4.22;1.20;;;;;;;16.49;47.73;102343.47;4921389;29;20023;-66
2023/02/03 02:55:09;;;;;;;4.38;1.30;;;;;;;16.49;48.28;102338.03;4935687;29;20036;-67
2023/02/03 02:57:35;;;;;;;2.75;1.17;;;;;;;16.45;48.22;102356.38;4936845;29;20385;-67
2023/02/03 03:00:01;;;;;;;5.85;1.17;;;;;;;16.48;48.35;102364.22;4920076;29;20039;-66
2023/02/03 03:02:34;;;;;;;5.07;1.40;;;;;;;16.49;49.06;102349.72;4935762;29;20031;-66
2023/02/03 03:05:00;;;;;;;;;;;;;;;16.49;48.40;102359.69;4936277;29;20039;-67
2023/02/03 03:07:26;;;;;;;8.27;1.27;;;;;;;16.49;48.16;102365.97;4935572;29;19911;-67
2023/02/03 03:09:56;;;;;;;5.88;1.80;;;;;;;16.48;49.02;102371.47;4935611;29;20043;-67
2023/02/03 03:12:25;;;;;;;2.80;1.23;;;;;;;16.48;48.44;102366.06;4936364;29;20041;-66
2023/02/03 03:14:54;;;;;;;2.10;0.80;;;;;;;16.49;48.16;102363.25;4935571;29;20063;-66
2023/02/03 03:17:25;;;;;;;5.70;1.30;;;;;;;16.49;48.78;102365.09;4935584;29;20031;-66
2023/02/03 03:19:54;;;;;;;4.30;0.90;;;;;;;16.48;48.62;102356.13;4935343;29;20110;-67
2023/02/03 03:22:27;;;;;;;10.25;1.30;;;;;;;16.48;49.03;102366.94;4936405;29;20079;-66
2023/02/03 03:24:54;;;;;;;;;;;;;;;16.48;47.77;102375.06;4937192;29;20023;-67
2023/02/03 03:27:28;;;;;;;4.32;1.00;;;;;;;16.47;48.29;102378.72;4935227;29;19911;-67
2023/02/03 03:30:00;;;;;;;4.03;1.13;;;;;;;16.48;47.92;102377.75;4919511;29;20032;-66
2023/02/03 03:32:26;;;;;;;5.10;1.10;;;;;;;16.46;48.95;102377.03;4935157;29;20023;-67
2023/02/03 03:34:53;;;;;;;3.45;0.98;;;;;;;16.46;47.55;102382.44;4950899;29;20484;-66
2023/02/03 03:37:23;;;;;;;3.70;1.10;;;;;;;16.41;48.72;102373.88;4919243;29;20049;-67
2023/02/03 03:39:59;;;;;;;5.97;0.93;;;;;;;16.47;47.78;102389.56;4935794;29;20456;-66
2023/02/03 03:42:45;;;;;;;7.43;1.23;;;;;;;16.47;48.66;102370.63;4919131;29;20043;-66
2023/02/03 03:45:31;;;;;;;2.20;0.98;;;;;;;16.41;47.48;102352.22;4936073;29;20071;-66
2023/02/03 03:47:57;;;;;;;3.13;0.70;;;;;;;16.43;47.31;102355.66;4934871;29;20420;-67
2023/02/03 03:50:32;;;;;;;4.47;1.70;;;;;;;16.42;48.30;102348.53;4935881;29;20028;-67
2023/02/03 03:52:59;;;;;;;4.25;1.58;;;;;;;16.43;48.37;102350.25;4936175;29;20173;-67
2023/02/03 03:55:26;;;;;;;4.63;1.02;;;;;;;16.43;48.28;102361.06;4934665;29;20111;-67
2023/02/03 03:58:20;;;;;;;5.15;1.08;;;;;;;16.43;48.90;102366.47;4934563;29;20023;-67
2023/02/03 04:00:47;;;;;;;3.47;1.55;;;;;;;16.43;47.92;102366.47;4917770;29;20035;-67
2023/02/03 04:03:24;;;;;;;1.30;0.73;;;;;;;16.43;48.81;102344.84;4934742;29;20043;-67
2023/02/03 04:05:49;;;;;;;5.20;1.42;;;;;;;16.40;47.79;102334.28;4934631;29;20043;-67
2023/02/03 04:08:15;;;;;;;2.28;0.70;;;;;;;16.43;48.69;102342.13;4936578;29;20023;-66
2023/02/03 04:10:41;;;;;;;5.07;0.90;;;;;;;16.43;48.45;102344.84;4918860;29;20554;-67
2023/02/03 04:13:09;;;;;;;5.68;1.73;;;;;;;16.42;48.05;102342.25;4919397;29;20059;-66
2023/02/03 04:15:35;;;;;;;7.90;0.70;;;;;;;16.45;48.33;102337.44;4918823;29;20030;-66
2023/02/03 04:18:00;;;;;;;3.70;1.17;;;;;;;16.45;48.63;102340.16;4918651;29;20032;-66
2023/02/03 04:20:27;;;;;;;2.63;0.75;;;;;;;16.45;48.66;102329.31;4934704;29;20024;-66
2023/02/03 04:22:52;;;;;;;2.47;0.75;;;;;;;16.44;47.55;102330.34;4935573;29;20035;-66
2023/02/03 04:25:18;;;;;;;3.63;0.82;;;;;;;16.42;48.77;102340.41;4935809;29;20154;-66
2023/02/03 04:27:44;;;;;;;2.78;0.95;;;;;;;16.46;48.00;102343.72;4934400;29;20020;-66
2023/02/03 04:30:10;;;;;;;3.75;0.90;;;;;;;16.46;47.65;102341.88;4950044;29;20115;-66
2023/02/03 04:32:36;;;;;;;6.57;0.82;;;;;;;16.47;48.46;102335.47;4934223;29;20036;-66
2023/02/03 04:35:03;;;;;;;3.30;0.82;;;;;;;16.45;47.77;102340.16;4933514;29;20505;-66
2023/02/03 04:37:29;;;;;;;5.15;1.02;;;;;;;16.49;47.18;102349.72;4939043;29;20395;-66
2023/02/03 04:39:54;;;;;;;4.95;0.88;;;;;;;16.48;47.79;102348.00;4935070;29;20052;-66
2023/02/03 04:42:20;;;;;;;4.50;1.00;;;;;;;16.48;48.24;102352.56;4935372;29;20070;-66
2023/02/03 04:44:46;;;;;;;2.50;0.75;;;;;;;16.48;47.64;102353.41;4918373;29;20403;-66
2023/02/03 04:47:12;;;;;;;6.40;0.85;;;;;;;16.48;48.05;102355.25;4935052;29;20032;-67
2023/02/03 04:49:37;;;;;;;4.28;0.57;;;;;;;16.48;47.15;102361.53;4935190;29;20091;-66
2023/02/03 04:52:02;;;;;;;3.55;0.70;;;;;;;16.48;47.63;102369.66;4935175;29;20095;-67
2023/02/03 04:54:28;;;;;;;2.00;0.50;;;;;;;16.49;48.24;102352.44;4902357;29;20042;-66
2023/02/03 04:56:53;;;;;;;2.22;0.82;;;;;;;16.52;47.62;102346.78;4933909;29;20036;-66
2023/02/03 04:59:20;;;;;;;5.10;0.52;;;;;;;16.55;48.13;102354.66;4933883;29;20082;-66
2023/02/03 05:01:46;;;;;;;0.95;0.85;;;;;;;16.54;47.01;102363.75;4934229;29;20024;-66
2023/02/03 05:04:11;;;;;;;4.32;1.10;;;;;;;16.51;47.88;102355.88;4935053;29;20043;-67
2023/02/03 05:06:37;;;;;;;4.13;0.75;;;;;;;16.51;48.14;102345.03;4935001;29;20122;-66
2023/02/03 05:09:02;;;;;;;4.25;1.00;;;;;;;16.49;47.93;102346.16;4902316;29;20031;-66
2023/02/03 05:11:28;;;;;;;2.22;0.70;;;;;;;16.49;47.23;102359.69;4933892;29;20035;-66
2023/02/03 05:13:54;;;;;;;7.47;0.68;;;;;;;16.49;47.16;102355.13;4934821;29;20109;-66
2023/02/03 05:16:20;;;;;;;1.88;0.70;;;;;;;16.49;46.95;102338.91;4935249;29;20507;-66
2023/02/03 05:18:45;;;;;;;8.05;0.65;;;;;;;16.46;47.97;102324.78;4918230;29;20172;-67
2023/02/03 05:21:12;;;;;;;3.38;0.50;;;;;;;16.46;48.37;102333.75;4935272;29;20053;-66
2023/02/03 05:23:37;;;;;;;1.92;0.60;;;;;;;16.50;48.51;102343.31;4933621;29;20050;-66
2023/02/03 05:26:03;;;;;;;3.25;0.63;;;;;;;16.51;47.93;102352.28;4933811;29;20480;-66
2023/02/03 05:28:28;;;;;;;1.27;0.35;;;;;;;16.50;47.39;102346.03;4935159;29;20031;-67
2023/02/03 05:30:57;;;;;;;3.55;0.65;;;;;;;16.50;47.47;102346.03;4934971;29;20028;-66
2023/02/03 05:33:23;;;;;;;4.65;1.55;;;;;;;16.52;46.94;102340.50;4918779;29;20146;-67
2023/02/03 05:35:48;;;;;;;0.70;0.35;;;;;;;16.52;47.30;102338.66;4950992;29;20446;-69
2023/02/03 05:38:14;;;;;;;5.10;0.70;;;;;;;16.50;47.31;102334.38;4934846;29;20027;-67
2023/02/03 05:43:23;;;;;;;1.75;0.40;;;;;;;16.48;47.41;102339.88;4935158;29;20046;-67
2023/02/03 05:45:49;;;;;;;0.32;0.32;;;;;;;16.47;47.38;102362.50;4918102;29;20036;-67
2023/02/03 05:48:14;;;;;;;3.50;0.70;;;;;;;16.45;48.28;102369.91;4938229;29;20040;-66
2023/02/03 05:50:40;;;;;;;3.60;0.60;;;;;;;16.42;47.56;102370.16;4937633;29;20110;-67
2023/02/03 05:53:06;;;;;;;5.13;1.17;;;;;;;16.46;47.35;102382.44;4938854;29;20027;-66
2023/02/03 05:55:32;;;;;;;5.53;0.80;;;;;;;16.43;48.26;102368.31;4938602;29;20054;-66
2023/02/03 05:57:58;;;;;;;0.90;0.50;;;;;;;16.43;47.49;102366.47;4939900;29;20059;-67
2023/02/03 06:00:24;;;;;;;3.50;1.63;;;;;;;16.43;48.55;102392.66;4939741;29;20028;-68
2023/02/03 06:02:58;;;;;;;3.53;0.80;;;;;;;16.44;48.15;102379.03;4921407;29;20510;-66
2023/02/03 06:05:24;;;;;;;2.03;1.83;;;;;;;16.43;47.23;102379.13;4938879;29;20035;-66
2023/02/03 06:07:50;;;;;;;2.75;1.30;;;;;;;16.44;46.89;102395.25;4921150;29;20023;-66
2023/02/03 06:10:16;;;;;;;1.25;0.50;;;;;;;16.45;47.43;102391.53;4936547;29;20031;-66
2023/02/03 06:12:43;;;;;;;6.57;0.90;;;;;;;16.42;48.01;102380.09;4937902;29;20039;-66
2023/02/03 06:15:09;;;;;;;8.15;0.95;;;;;;;16.47;47.54;102384.16;4937222;29;20399;-66
2023/02/03 06:17:35;;;;;;;15.65;1.38;;;;;;;16.48;48.59;102388.56;4937540;29;20135;-66
2023/02/03 06:20:08;;;;;;;2.65;0.68;;;;;;;16.46;47.90;102387.84;4937414;29;20505;-66
2023/02/03 06:22:34;;;;;;;1.58;0.40;;;;;;;16.48;47.36;102375.06;4938449;29;20439;-66
2023/02/03 06:24:59;;;;;;;2.22;0.30;;;;;;;16.49;47.40;102374.06;4937319;29;20164;-67
2023/02/03 06:27:25;;;;;;;3.67;0.60;;;;;;;16.47;48.46;102377.91;4937305;29;20506;-66
2023/02/03 06:29:51;;;;;;;9.50;0.98;;;;;;;16.48;47.81;102391.28;4938639;29;20051;-69
2023/02/03 06:32:16;;;;;;;4.43;0.50;;;;;;;16.48;47.70;102388.56;4937281;29;20031;-67
2023/02/03 06:34:42;;;;;;;5.55;0.55;;;;;;;16.45;47.92;102386.13;4925245;29;20039;-67
2023/02/03 06:37:07;;;;;;;5.47;0.70;;;;;;;16.47;47.64;102384.16;4938175;29;20043;-66
2023/02/03 06:39:32;;;;;;;2.83;0.70;;;;;;;16.43;47.92;102388.13;4936844;29;20079;-66
2023/02/03 06:41:58;;;;;;;2.72;0.77;;;;;;;16.45;46.91;102385.25;4946495;29;20430;-65
2023/02/03 06:44:24;;;;;;;6.95;0.65;;;;;;;16.44;48.57;102373.63;4940177;29;20035;-65
2023/02/03 06:46:49;;;;;;;2.97;0.77;;;;;;;16.45;47.44;102386.13;4940210;29;20035;-64
2023/02/03 06:49:16;;;;;;;1.08;0.73;;;;;;;16.45;47.39;102374.44;4933262;29;20038;-66
2023/02/03 06:51:42;;;;;;;2.75;0.63;;;;;;;16.46;48.38;102359.94;4938179;29;20028;-67
2023/02/03 06:54:07;;;;;;;9.07;0.90;;;;;;;16.45;47.13;102356.38;4937830;29;20091;-67
2023/02/03 06:56:33;;;;;;;4.63;0.80;;;;;;;16.41;47.43;102351.38;4938170;29;20099;-66
2023/02/03 06:58:58;;;;;;;2.70;1.35;;;;;;;16.37;48.18;102356.16;4937120;29;20051;-66
2023/02/03 07:01:24;;;;;;;0.65;0.40;;;;;;;16.45;47.82;102369.91;4905287;29;20499;-66
2023/02/03 07:03:50;;;;;;;3.00;0.60;;;;;;;16.46;47.73;102359.94;4921266;29;20042;-67
2023/02/03 07:06:16;;;;;;;0.68;0.60;;;;;;;16.43;47.97;102339.44;4938097;29;20035;-67
2023/02/03 07:08:42;;;;;;;4.93;0.68;;;;;;;16.46;47.49;102350.00;4945756;29;20058;-67
2023/02/03 07:11:08;;;;;;;4.75;0.52;;;;;;;16.47;47.10;102353.56;4939765;29;20062;-69
2023/02/03 07:13:34;;;;;;;8.75;0.70;;;;;;;16.47;48.25;102350.84;4939652;29;20106;-67
2023/02/03 07:15:59;;;;;;;1.45;0.70;;;;;;;16.49;47.79;102355.13;4939938;29;20035;-67
2023/02/03 07:18:25;;;;;;;4.25;0.50;;;;;;;16.48;47.33;102348.00;4955507;29;20058;-66
2023/02/03 07:20:51;;;;;;;0.80;0.63;;;;;;;16.48;47.90;102353.41;4956738;28;20027;-67
2023/02/03 07:23:17;;;;;;;1.75;1.02;;;;;;;16.49;47.91;102359.69;4956776;28;20170;-67
2023/02/03 07:25:42;;;;;;;3.92;0.57;;;;;;;16.44;47.97;102345.69;4948985;29;20071;-67
2023/02/03 07:28:08;;;;;;;2.35;0.47;;;;;;;16.48;46.78;102336.31;4937586;29;20133;-67
2023/02/03 07:30:33;;;;;;;4.82;0.73;;;;;;;16.42;46.94;102340.41;4936217;29;20115;-66
2023/02/03 07:32:59;;;;;;;3.45;0.17;;;;;;;16.48;46.88;102350.72;4920217;29;20043;-67
2023/02/03 07:35:26;;;;;;;0.30;0.30;;;;;;;16.48;47.07;102353.41;4937275;29;20028;-67
2023/02/03 07:37:51;;;;;;;4.10;0.30;;;;;;;16.50;47.58;102362.25;4937353;29;20038;-67
2023/02/03 07:40:17;;;;;;;3.20;0.50;;;;;;;16.50;47.39;102383.88;4936874;29;20423;-66
2023/02/03 07:42:43;;;;;;;0.95;0.52;;;;;;;16.50;47.54;102381.19;4936965;29;20060;-67
2023/02/03 07:45:10;;;;;;;2.97;0.52;;;;;;;16.50;47.42;102389.31;4937135;29;20083;-66
2023/02/03 07:47:35;;;;;;;1.75;0.88;;;;;;;16.52;47.74;102387.34;4937024;29;20023;-67
2023/02/03 07:50:01;;;;;;;2.72;0.73;;;;;;;16.53;47.68;102399.91;4936950;29;20055;-67
2023/02/03 07:52:27;;;;;;;7.03;0.60;;;;;;;16.54;47.13;102415.16;4937087;29;20035;-66
2023/02/03 07:54:52;;;;;;;1.70;0.32;;;;;;;16.55;47.49;102414.19;4919701;29;20050;-67
2023/02/03 07:57:17;;;;;;;3.35;0.60;;;;;;;16.54;47.64;102412.44;4953138;29;20078;-67
2023/02/03 07:59:43;;;;;;;3.83;0.82;;;;;;;16.55;47.38;102408.78;4954703;29;20031;-67
2023/02/03 08:02:10;;;;;;;4.07;0.52;;;;;;;16.58;46.35;102400.38;4954669;29;20543;-67
2023/02/03 08:04:36;;;;;;;4.10;0.55;;;;;;;16.56;46.86;102396.94;4954558;28;20057;-66
2023/02/03 08:07:02;;;;;;;0.47;0.28;;;;;;;16.59;47.29;102396.69;4922845;29;20062;-66
2023/02/03 08:09:27;;;;;;;1.08;0.40;;;;;;;16.62;47.30;102396.44;4954060;28;20078;-67
2023/02/03 08:11:53;;;;;;;6.63;0.60;;;;;;;16.62;47.89;102387.44;4954594;28;20035;-67
2023/02/03 08:14:18;;;;;;;1.65;0.40;;;;;;;16.62;46.54;102404.53;4954595;29;20023;-67
2023/02/03 08:16:44;;;;;;;1.35;0.50;;;;;;;16.63;46.25;102408.13;4954377;28;20094;-66
2023/02/03 08:19:10;;;;;;;1.33;0.63;;;;;;;16.64;46.82;102409.81;4955954;28;20038;-66
2023/02/03 08:21:35;;;;;;;2.55;0.40;;;;;;;16.65;46.79;102412.41;4955866;28;20035;-67
2023/02/03 08:24:01;;;;;;;1.50;0.60;;;;;;;16.66;46.53;102424.97;4954519;29;20053;-66
2023/02/03 08:26:26;;;;;;;1.42;0.60;;;;;;;16.66;47.50;102416.84;4955515;28;20038;-67
2023/02/03 08:28:52;;;;;;;3.60;0.80;;;;;;;16.67;47.41;102423.94;4954152;29;20039;-66
2023/02/03 08:31:17;;;;;;;2.40;0.30;;;;;;;16.69;47.78;102427.41;4955453;28;20434;-67
2023/02/03 08:33:42;;;;;;;2.70;0.60;;;;;;;16.73;46.50;102415.31;4955380;29;20031;-67
2023/02/03 08:36:10;;;;;;;3.10;0.75;;;;;;;16.74;47.25;102417.03;4955492;29;20031;-67
2023/02/03 08:38:35;;;;;;;0.55;0.40;;;;;;;16.75;47.62;102424.16;4938553;29;20098;-66
2023/02/03 08:41:00;;;;;;;3.58;0.55;;;;;;;16.76;47.54;102436.72;4955600;28;20492;-67
2023/02/03 08:43:26;;;;;;;2.70;0.52;;;;;;;16.76;47.43;102444.81;4955235;28;20466;-66
2023/02/03 08:45:51;;;;;;;0.73;0.40;;;;;;;16.76;46.58;102447.53;4955279;28;20035;-67
2023/02/03 08:48:17;;;;;;;6.00;0.80;;;;;;;16.75;47.14;102448.50;4954148;29;20551;-67
2023/02/03 08:50:44;;;;;;;2.88;0.47;;;;;;;16.66;47.13;102443.91;4955093;28;20031;-67
2023/02/03 08:53:10;;;;;;;3.35;0.65;;;;;;;16.75;47.28;102456.63;4955368;28;20030;-67
2023/02/03 08:55:38;;;;;;;3.03;0.55;;;;;;;16.77;47.44;102449.25;4955161;28;20027;-67
2023/02/03 08:58:04;;;;;;;3.42;0.80;;;;;;;16.80;46.78;102451.72;4954114;29;20479;-67
2023/02/03 09:00:29;;;;;;;4.18;0.40;;;;;;;16.83;47.16;102435.19;4955235;28;20035;-67
2023/02/03 09:02:55;;;;;;;2.38;0.60;;;;;;;16.83;47.25;102440.59;4955321;28;20024;-67
2023/02/03 09:05:20;;;;;;;1.85;0.73;;;;;;;16.85;47.24;102463.00;4955221;28;20039;-67
2023/02/03 09:07:46;;;;;;;3.85;0.88;;;;;;;16.84;47.09;102463.13;4954210;29;20372;-66
2023/02/03 09:10:11;;;;;;;1.17;0.70;;;;;;;16.85;47.09;102467.56;4953747;29;20439;-66
2023/02/03 09:12:37;;;;;;;3.75;0.50;;;;;;;16.87;46.54;102476.41;4955346;28;20027;-67
2023/02/03 09:15:02;;;;;;;3.45;1.00;;;;;;;16.88;46.99;102464.59;4955215;28;20031;-67
2023/02/03 09:17:28;;;;;;;2.00;0.40;;;;;;;16.87;46.50;102469.13;4953799;28;20483;-67
2023/02/03 09:19:53;;;;;;;4.90;0.85;;;;;;;16.85;46.74;102471.13;4954439;28;20106;-67
2023/02/03 09:22:19;;;;;;;3.10;0.50;;;;;;;16.86;47.54;102464.69;4957829;29;20493;-67
2023/02/03 09:24:44;;;;;;;2.97;0.73;;;;;;;16.87;46.96;102473.69;4952134;29;20028;-69
2023/02/03 09:27:10;;;;;;;5.95;0.70;;;;;;;16.85;47.52;102465.72;4940197;29;20031;-67
2023/02/03 09:29:35;;;;;;;4.70;0.90;;;;;;;16.84;46.72;102457.69;4939762;29;20039;-66
2023/02/03 09:32:06;;;;;;;2.05;0.68;;;;;;;16.86;46.04;102444.91;4938397;29;20532;-67
2023/02/03 09:34:31;;;;;;;1.92;0.90;;;;;;;16.89;46.91;102455.47;4939548;29;20107;-67
2023/02/03 09:36:56;;;;;;;2.72;0.70;;;;;;;16.92;46.83;102448.94;4938281;29;20115;-67
2023/02/03 09:39:22;;;;;;;4.00;0.70;;;;;;;16.91;46.30;102447.22;4938611;29;20110;-66
2023/02/03 09:42:24;;;;;;;4.57;0.75;;;;;;;16.89;47.21;102461.72;4922728;29;20051;-67
2023/02/03 09:44:52;;;;;;;7.43;1.02;;;;;;;16.87;47.81;102461.00;4939216;29;20055;-67
2023/02/03 09:47:22;;;;;;;2.67;0.63;;;;;;;16.85;46.56;102473.81;4939849;29;20087;-66
2023/02/03 09:49:51;;;;;;;3.25;1.10;;;;;;;16.79;47.46;102460.81;4938102;29;20031;-67
2023/02/03 09:52:23;;;;;;;4.60;0.88;;;;;;;16.80;47.15;102467.09;4939548;29;20472;-67
2023/02/03 09:54:58;;;;;;;2.70;0.70;;;;;;;16.80;47.82;102475.22;4922533;29;20028;-67
2023/02/03 09:57:26;;;;;;;3.55;1.13;;;;;;;16.78;47.89;102477.16;4939369;29;20027;-67
2023/02/03 09:59:53;;;;;;;1.08;0.60;;;;;;;16.76;47.60;102482.72;4937945;29;20080;-67
2023/02/03 10:02:46;;;;;;;3.08;0.63;;;;;;;16.74;46.63;102473.00;4939609;29;20050;-66
2023/02/03 10:05:55;;;;;;;2.33;0.95;;;;;;;16.75;47.30;102475.56;4936803;29;20036;-66
2023/02/03 10:08:26;;;;;;;5.15;1.50;;;;;;;16.72;47.64;102475.81;4939602;29;20035;-67
2023/02/03 10:11:08;;;;;;;2.28;1.00;;;;;;;16.70;47.18;102482.34;4938995;29;20038;-68
2023/02/03 10:14:15;;;;;;;2.90;1.13;;;;;;;16.69;48.23;102477.97;4937792;29;20062;-66
2023/02/03 10:17:09;;;;;;;4.28;1.13;;;;;;;16.73;47.77;102488.38;4901960;29;20024;-66
2023/02/03 10:19:42;;;;;;;5.22;1.38;;;;;;;16.68;48.11;102501.44;4938796;29;20027;-66
2023/02/03 10:22:12;;;;;;;4.78;1.35;;;;;;;16.62;47.94;102487.56;4922002;29;20396;-66
2023/02/03 10:24:50;;;;;;;3.35;1.13;;;;;;;16.63;48.20;102492.84;4939620;29;20157;-67
2023/02/03 10:27:21;;;;;;;2.78;1.83;;;;;;;16.64;47.85;102521.63;4922779;29;20496;-67
2023/02/03 10:29:55;;;;;;;2.42;1.30;;;;;;;16.66;47.83;102513.38;4938567;29;20031;-67
2023/02/03 10:32:23;;;;;;;4.15;1.25;;;;;;;16.60;48.66;102506.63;4939358;29;20027;-67
2023/02/03 10:34:48;;;;;;;2.83;1.45;;;;;;;16.62;49.09;102512.78;4907112;29;20027;-67
2023/02/03 10:37:30;;;;;;;4.85;1.45;;;;;;;16.63;48.26;102514.50;4939736;29;20042;-67
2023/02/03 10:39:56;;;;;;;6.57;1.70;;;;;;;16.65;47.61;102512.53;4938519;29;20027;-67
2023/02/03 10:42:22;;;;;;;3.88;1.95;;;;;;;16.69;48.82;102511.28;4938281;29;20051;-67
2023/02/03 10:44:58;;;;;;;4.63;2.35;;;;;;;16.76;48.75;102509.78;4938654;29;20027;-67
2023/02/03 10:47:27;;;;;;;5.03;2.03;;;;;;;16.80;48.81;102505.84;4938168;29;20023;-67
2023/02/03 10:49:55;;;;;;;2.42;1.92;;;;;;;16.80;48.75;102499.56;4922067;29;20028;-66
2023/02/03 10:52:25;;;;;;;8.20;1.63;;;;;;;16.80;48.82;102480.63;4938175;29;20156;-68
2023/02/03 10:54:50;;;;;;;4.80;1.48;;;;;;;16.77;48.75;102473.63;4939483;29;20059;-67
2023/02/03 10:57:16;;;;;;;7.10;1.95;;;;;;;16.81;48.31;102477.78;4921897;29;20469;-68
2023/02/03 10:59:44;;;;;;;4.95;1.45;;;;;;;16.85;47.75;102481.94;4939482;29;20091;-67
2023/02/03 11:02:39;;;;;;;5.30;1.77;;;;;;;16.87;49.07;102481.81;4939622;29;20111;-67
2023/02/03 11:05:23;;;;;;;5.50;1.70;;;;;;;16.87;48.32;102477.25;4929839;29;20440;-67
2023/02/03 11:07:49;;;;;;;6.35;1.60;;;;;;;16.84;49.24;102477.50;4939046;29;20023;-69
2023/02/03 11:10:29;;;;;;;3.63;1.70;;;;;;;16.85;48.14;102475.66;4937713;29;20032;-67
2023/02/03 11:13:16;;;;;;;5.82;1.80;;;;;;;16.88;48.90;102465.44;4938536;29;20035;-67
2023/02/03 11:15:57;;;;;;;2.72;1.58;;;;;;;16.97;48.17;102479.19;4938019;29;20028;-67
2023/02/03 11:18:44;;;;;;;6.88;1.73;;;;;;;16.99;49.04;102471.78;4938714;29;20043;-68
2023/02/03 11:21:21;;;;;;;3.15;1.50;;;;;;;17.02;48.54;102471.53;4921695;29;20126;-67
2023/02/03 11:24:00;;;;;;;6.57;1.95;;;;;;;17.05;48.02;102458.59;4921467;29;20028;-68
2023/02/03 11:26:30;;;;;;;4.03;1.73;;;;;;;17.15;48.44;102472.19;4937239;29;20023;-66
2023/02/03 11:28:58;;;;;;;3.97;1.75;;;;;;;17.14;48.49;102463.22;4937949;29;20032;-66
2023/02/03 11:31:25;;;;;;;5.63;2.22;;;;;;;17.18;48.29;102467.38;4936435;29;20027;-67
2023/02/03 11:33:54;;;;;;;6.78;1.98;;;;;;;17.23;48.64;102464.25;4937229;29;20052;-67
2023/02/03 11:36:19;;;;;;;4.30;1.90;;;;;;;17.29;49.40;102463.75;4936649;29;20038;-73
2023/02/03 11:38:45;;;;;;;3.63;2.00;;;;;;;17.32;48.28;102463.47;4936280;29;20383;-66